sensor_id;sensor_type;location;lat;lon;timestamp;P1;durP1;ratioP1;P2;durP2;ratioP2
53040;SDS011;39326;42.650;23.248;2022-09-09T00:01:56;10.30;;;9.40;;
53040;SDS011;39326;42.650;23.248;2022-09-09T00:05:04;9.53;;;8.73;;
53040;SDS011;39326;42.650;23.248;2022-09-09T00:07:50;8.53;;;7.77;;
53040;SDS011;39326;42.650;23.248;2022-09-09T00:10:40;9.85;;;8.85;;
53040;SDS011;39326;42.650;23.248;2022-09-09T00:15:59;9.18;;;8.27;;
53040;SDS011;39326;42.650;23.248;2022-09-09T00:18:49;9.13;;;8.43;;
53040;SDS011;39326;42.650;23.248;2022-09-09T00:21:38;8.70;;;8.00;;
53040;SDS011;39326;42.650;23.248;2022-09-09T00:24:26;9.93;;;9.03;;
53040;SDS011;39326;42.650;23.248;2022-09-09T00:27:04;9.23;;;8.53;;
53040;SDS011;39326;42.650;23.248;2022-09-09T00:29:47;10.17;;;9.10;;
53040;SDS011;39326;42.650;23.248;2022-09-09T00:32:31;9.20;;;8.40;;
53040;SDS011;39326;42.650;23.248;2022-09-09T00:35:04;9.40;;;8.53;;
53040;SDS011;39326;42.650;23.248;2022-09-09T00:37:53;8.85;;;8.15;;
53040;SDS011;39326;42.650;23.248;2022-09-09T00:40:32;9.07;;;8.33;;
53040;SDS011;39326;42.650;23.248;2022-09-09T00:43:07;9.73;;;8.97;;
53040;SDS011;39326;42.650;23.248;2022-09-09T00:49:09;9.53;;;8.87;;
53040;SDS011;39326;42.650;23.248;2022-09-09T00:55:05;9.93;;;8.97;;
53040;SDS011;39326;42.650;23.248;2022-09-09T00:57:45;9.30;;;8.60;;
53040;SDS011;39326;42.650;23.248;2022-09-09T01:02:53;9.47;;;8.77;;
53040;SDS011;39326;42.650;23.248;2022-09-09T01:11:26;10.17;;;9.43;;
53040;SDS011;39326;42.650;23.248;2022-09-09T01:17:15;10.53;;;9.73;;
53040;SDS011;39326;42.650;23.248;2022-09-09T01:20:02;10.23;;;9.10;;
53040;SDS011;39326;42.650;23.248;2022-09-09T01:26:05;9.68;;;8.88;;
53040;SDS011;39326;42.650;23.248;2022-09-09T01:28:40;10.17;;;8.83;;
53040;SDS011;39326;42.650;23.248;2022-09-09T01:31:14;9.47;;;8.77;;
53040;SDS011;39326;42.650;23.248;2022-09-09T01:33:48;9.87;;;9.17;;
53040;SDS011;39326;42.650;23.248;2022-09-09T01:39:05;9.75;;;8.88;;
53040;SDS011;39326;42.650;23.248;2022-09-09T01:41:34;8.93;;;8.05;;
53040;SDS011;39326;42.650;23.248;2022-09-09T01:44:05;8.90;;;8.20;;
53040;SDS011;39326;42.650;23.248;2022-09-09T01:46:37;9.53;;;8.70;;
53040;SDS011;39326;42.650;23.248;2022-09-09T01:49:07;9.90;;;9.00;;
53040;SDS011;39326;42.650;23.248;2022-09-09T01:51:38;8.87;;;8.17;;
53040;SDS011;39326;42.650;23.248;2022-09-09T01:54:16;10.52;;;9.73;;
53040;SDS011;39326;42.650;23.248;2022-09-09T01:59:39;10.27;;;9.33;;
53040;SDS011;39326;42.650;23.248;2022-09-09T02:02:36;9.87;;;9.07;;
53040;SDS011;39326;42.650;23.248;2022-09-09T02:05:11;10.47;;;9.73;;
53040;SDS011;39326;42.650;23.248;2022-09-09T02:07:49;10.40;;;9.47;;
53040;SDS011;39326;42.650;23.248;2022-09-09T02:13:25;10.33;;;9.63;;
53040;SDS011;39326;42.650;23.248;2022-09-09T02:16:23;9.13;;;8.33;;
53040;SDS011;39326;42.650;23.248;2022-09-09T02:21:30;10.43;;;9.45;;
53040;SDS011;39326;42.650;23.248;2022-09-09T02:24:03;10.57;;;9.63;;
53040;SDS011;39326;42.650;23.248;2022-09-09T02:26:40;10.15;;;9.30;;
53040;SDS011;39326;42.650;23.248;2022-09-09T02:29:14;10.67;;;9.67;;
53040;SDS011;39326;42.650;23.248;2022-09-09T02:31:47;10.83;;;9.83;;
53040;SDS011;39326;42.650;23.248;2022-09-09T02:34:22;10.37;;;9.50;;
53040;SDS011;39326;42.650;23.248;2022-09-09T02:36:55;10.10;;;9.40;;
53040;SDS011;39326;42.650;23.248;2022-09-09T02:39:29;10.17;;;9.37;;
53040;SDS011;39326;42.650;23.248;2022-09-09T02:42:00;9.80;;;9.00;;
53040;SDS011;39326;42.650;23.248;2022-09-09T02:44:34;10.90;;;9.90;;
53040;SDS011;39326;42.650;23.248;2022-09-09T02:47:39;9.60;;;8.73;;
53040;SDS011;39326;42.650;23.248;2022-09-09T02:50:08;10.13;;;9.43;;
53040;SDS011;39326;42.650;23.248;2022-09-09T02:52:47;10.60;;;9.60;;
53040;SDS011;39326;42.650;23.248;2022-09-09T02:55:41;10.20;;;9.50;;
53040;SDS011;39326;42.650;23.248;2022-09-09T02:58:17;10.40;;;9.47;;
53040;SDS011;39326;42.650;23.248;2022-09-09T03:00:47;10.37;;;9.67;;
53040;SDS011;39326;42.650;23.248;2022-09-09T03:03:21;10.37;;;9.47;;
53040;SDS011;39326;42.650;23.248;2022-09-09T03:05:52;9.83;;;8.93;;
53040;SDS011;39326;42.650;23.248;2022-09-09T03:08:23;10.37;;;9.50;;
53040;SDS011;39326;42.650;23.248;2022-09-09T03:11:00;9.90;;;9.10;;
53040;SDS011;39326;42.650;23.248;2022-09-09T03:13:30;11.25;;;10.30;;
53040;SDS011;39326;42.650;23.248;2022-09-09T03:16:01;10.00;;;9.10;;
53040;SDS011;39326;42.650;23.248;2022-09-09T03:18:32;9.97;;;9.17;;
53040;SDS011;39326;42.650;23.248;2022-09-09T03:21:02;11.00;;;10.00;;
53040;SDS011;39326;42.650;23.248;2022-09-09T03:23:33;10.40;;;9.60;;
53040;SDS011;39326;42.650;23.248;2022-09-09T03:26:04;9.70;;;8.95;;
53040;SDS011;39326;42.650;23.248;2022-09-09T03:28:40;10.00;;;9.03;;
53040;SDS011;39326;42.650;23.248;2022-09-09T03:31:11;10.18;;;9.25;;
53040;SDS011;39326;42.650;23.248;2022-09-09T03:33:42;10.27;;;9.37;;
53040;SDS011;39326;42.650;23.248;2022-09-09T03:36:14;10.80;;;9.77;;
53040;SDS011;39326;42.650;23.248;2022-09-09T03:38:45;10.10;;;9.27;;
53040;SDS011;39326;42.650;23.248;2022-09-09T03:41:16;9.73;;;8.77;;
53040;SDS011;39326;42.650;23.248;2022-09-09T03:43:46;9.83;;;8.87;;
53040;SDS011;39326;42.650;23.248;2022-09-09T03:46:16;9.97;;;9.07;;
53040;SDS011;39326;42.650;23.248;2022-09-09T03:48:46;9.07;;;8.40;;
53040;SDS011;39326;42.650;23.248;2022-09-09T03:51:17;10.50;;;9.67;;
53040;SDS011;39326;42.650;23.248;2022-09-09T03:53:49;11.00;;;10.00;;
53040;SDS011;39326;42.650;23.248;2022-09-09T03:56:21;10.43;;;9.60;;
53040;SDS011;39326;42.650;23.248;2022-09-09T03:58:52;10.70;;;9.70;;
53040;SDS011;39326;42.650;23.248;2022-09-09T04:01:26;10.63;;;9.63;;
53040;SDS011;39326;42.650;23.248;2022-09-09T04:04:03;11.33;;;10.23;;
53040;SDS011;39326;42.650;23.248;2022-09-09T04:06:34;11.27;;;10.17;;
53040;SDS011;39326;42.650;23.248;2022-09-09T04:09:09;10.27;;;9.27;;
53040;SDS011;39326;42.650;23.248;2022-09-09T04:11:40;10.20;;;9.23;;
53040;SDS011;39326;42.650;23.248;2022-09-09T04:14:11;10.80;;;9.87;;
53040;SDS011;39326;42.650;23.248;2022-09-09T04:16:41;9.87;;;8.97;;
53040;SDS011;39326;42.650;23.248;2022-09-09T04:19:13;11.00;;;10.07;;
53040;SDS011;39326;42.650;23.248;2022-09-09T04:21:43;10.43;;;9.53;;
53040;SDS011;39326;42.650;23.248;2022-09-09T04:24:14;9.90;;;9.10;;
53040;SDS011;39326;42.650;23.248;2022-09-09T04:26:43;10.23;;;9.43;;
53040;SDS011;39326;42.650;23.248;2022-09-09T04:29:16;10.07;;;9.23;;
53040;SDS011;39326;42.650;23.248;2022-09-09T04:31:49;11.10;;;10.07;;
53040;SDS011;39326;42.650;23.248;2022-09-09T04:34:26;10.57;;;9.70;;
53040;SDS011;39326;42.650;23.248;2022-09-09T04:36:55;11.02;;;10.13;;
53040;SDS011;39326;42.650;23.248;2022-09-09T04:39:31;10.40;;;9.50;;
53040;SDS011;39326;42.650;23.248;2022-09-09T04:42:02;11.50;;;10.60;;
53040;SDS011;39326;42.650;23.248;2022-09-09T04:44:34;11.70;;;10.70;;
53040;SDS011;39326;42.650;23.248;2022-09-09T04:47:08;10.70;;;9.67;;
53040;SDS011;39326;42.650;23.248;2022-09-09T04:49:39;12.25;;;11.15;;
53040;SDS011;39326;42.650;23.248;2022-09-09T04:52:13;11.03;;;10.17;;
53040;SDS011;39326;42.650;23.248;2022-09-09T04:54:44;11.07;;;10.27;;
53040;SDS011;39326;42.650;23.248;2022-09-09T04:57:21;11.30;;;10.30;;
53040;SDS011;39326;42.650;23.248;2022-09-09T04:59:51;11.43;;;10.45;;
53040;SDS011;39326;42.650;23.248;2022-09-09T05:02:20;11.97;;;10.60;;
53040;SDS011;39326;42.650;23.248;2022-09-09T05:04:57;11.00;;;10.17;;
53040;SDS011;39326;42.650;23.248;2022-09-09T05:07:28;11.32;;;10.32;;
53040;SDS011;39326;42.650;23.248;2022-09-09T05:09:58;11.23;;;10.10;;
53040;SDS011;39326;42.650;23.248;2022-09-09T05:12:31;10.67;;;9.87;;
53040;SDS011;39326;42.650;23.248;2022-09-09T05:15:02;11.80;;;10.80;;
53040;SDS011;39326;42.650;23.248;2022-09-09T05:17:33;13.93;;;12.27;;
53040;SDS011;39326;42.650;23.248;2022-09-09T05:20:01;12.77;;;11.70;;
53040;SDS011;39326;42.650;23.248;2022-09-09T05:22:31;11.90;;;10.70;;
53040;SDS011;39326;42.650;23.248;2022-09-09T05:24:57;12.05;;;10.85;;
53040;SDS011;39326;42.650;23.248;2022-09-09T05:27:26;11.50;;;10.40;;
53040;SDS011;39326;42.650;23.248;2022-09-09T05:29:53;11.67;;;10.70;;
53040;SDS011;39326;42.650;23.248;2022-09-09T05:32:19;12.27;;;11.27;;
53040;SDS011;39326;42.650;23.248;2022-09-09T05:34:47;12.77;;;11.63;;
53040;SDS011;39326;42.650;23.248;2022-09-09T05:37:15;11.57;;;10.68;;
53040;SDS011;39326;42.650;23.248;2022-09-09T05:39:42;13.13;;;11.60;;
53040;SDS011;39326;42.650;23.248;2022-09-09T05:42:10;12.52;;;11.52;;
53040;SDS011;39326;42.650;23.248;2022-09-09T05:44:37;13.88;;;12.48;;
53040;SDS011;39326;42.650;23.248;2022-09-09T05:47:04;13.20;;;12.13;;
53040;SDS011;39326;42.650;23.248;2022-09-09T06:59:05;19.02;;;17.35;;
53040;SDS011;39326;42.650;23.248;2022-09-09T07:01:34;17.70;;;16.10;;
53040;SDS011;39326;42.650;23.248;2022-09-09T07:04:05;17.47;;;15.97;;
53040;SDS011;39326;42.650;23.248;2022-09-09T07:06:37;16.92;;;15.50;;
53040;SDS011;39326;42.650;23.248;2022-09-09T07:09:06;18.63;;;17.02;;
53040;SDS011;39326;42.650;23.248;2022-09-09T07:11:38;17.23;;;15.73;;
53040;SDS011;39326;42.650;23.248;2022-09-09T07:14:08;16.13;;;14.63;;
53040;SDS011;39326;42.650;23.248;2022-09-09T07:16:36;16.98;;;15.38;;
53040;SDS011;39326;42.650;23.248;2022-09-09T07:19:03;16.83;;;14.80;;
53040;SDS011;39326;42.650;23.248;2022-09-09T07:21:29;16.23;;;14.63;;
53040;SDS011;39326;42.650;23.248;2022-09-09T07:23:56;17.20;;;15.70;;
53040;SDS011;39326;42.650;23.248;2022-09-09T07:26:25;15.45;;;14.00;;
53040;SDS011;39326;42.650;23.248;2022-09-09T07:28:53;17.08;;;15.55;;
53040;SDS011;39326;42.650;23.248;2022-09-09T07:31:22;16.67;;;15.25;;
53040;SDS011;39326;42.650;23.248;2022-09-09T07:33:52;15.30;;;14.00;;
53040;SDS011;39326;42.650;23.248;2022-09-09T07:36:19;16.63;;;14.93;;
53040;SDS011;39326;42.650;23.248;2022-09-09T07:38:51;15.45;;;14.00;;
53040;SDS011;39326;42.650;23.248;2022-09-09T07:41:26;15.02;;;13.82;;
53040;SDS011;39326;42.650;23.248;2022-09-09T07:43:57;16.60;;;15.10;;
53040;SDS011;39326;42.650;23.248;2022-09-09T07:46:24;15.20;;;13.63;;
53040;SDS011;39326;42.650;23.248;2022-09-09T07:48:51;13.63;;;12.52;;
53040;SDS011;39326;42.650;23.248;2022-09-09T07:51:39;14.82;;;12.70;;
53040;SDS011;39326;42.650;23.248;2022-09-09T07:54:07;14.25;;;12.73;;
53040;SDS011;39326;42.650;23.248;2022-09-09T07:56:34;14.70;;;13.40;;
53040;SDS011;39326;42.650;23.248;2022-09-09T07:59:01;14.25;;;12.95;;
53040;SDS011;39326;42.650;23.248;2022-09-09T08:01:31;15.60;;;14.02;;
53040;SDS011;39326;42.650;23.248;2022-09-09T08:04:02;13.98;;;12.70;;
53040;SDS011;39326;42.650;23.248;2022-09-09T08:06:34;14.88;;;13.57;;
53040;SDS011;39326;42.650;23.248;2022-09-09T08:09:02;14.02;;;12.70;;
53040;SDS011;39326;42.650;23.248;2022-09-09T08:11:28;12.82;;;11.60;;
53040;SDS011;39326;42.650;23.248;2022-09-09T08:13:55;14.20;;;12.75;;
53040;SDS011;39326;42.650;23.248;2022-09-09T08:16:22;13.93;;;12.52;;
53040;SDS011;39326;42.650;23.248;2022-09-09T08:18:50;13.32;;;11.88;;
53040;SDS011;39326;42.650;23.248;2022-09-09T08:21:19;12.88;;;11.75;;
53040;SDS011;39326;42.650;23.248;2022-09-09T08:23:47;13.15;;;11.70;;
53040;SDS011;39326;42.650;23.248;2022-09-09T08:26:17;13.35;;;11.98;;
53040;SDS011;39326;42.650;23.248;2022-09-09T08:28:47;13.25;;;12.00;;
53040;SDS011;39326;42.650;23.248;2022-09-09T08:31:17;12.55;;;11.30;;
53040;SDS011;39326;42.650;23.248;2022-09-09T08:33:48;13.15;;;12.05;;
53040;SDS011;39326;42.650;23.248;2022-09-09T08:36:15;14.77;;;13.32;;
53040;SDS011;39326;42.650;23.248;2022-09-09T08:39:03;14.27;;;12.65;;
53040;SDS011;39326;42.650;23.248;2022-09-09T08:44:19;14.00;;;12.57;;
53040;SDS011;39326;42.650;23.248;2022-09-09T08:47:15;12.65;;;11.50;;
53040;SDS011;39326;42.650;23.248;2022-09-09T08:55:46;13.07;;;11.77;;
53040;SDS011;39326;42.650;23.248;2022-09-09T08:58:14;12.30;;;10.43;;
53040;SDS011;39326;42.650;23.248;2022-09-09T09:09:06;12.77;;;10.63;;
53040;SDS011;39326;42.650;23.248;2022-09-09T09:11:39;11.07;;;8.88;;
53040;SDS011;39326;42.650;23.248;2022-09-09T09:14:14;15.02;;;9.73;;
53040;SDS011;39326;42.650;23.248;2022-09-09T09:16:54;10.27;;;8.55;;
53040;SDS011;39326;42.650;23.248;2022-09-09T09:19:22;13.68;;;8.98;;
53040;SDS011;39326;42.650;23.248;2022-09-09T09:26:57;11.73;;;9.10;;
53040;SDS011;39326;42.650;23.248;2022-09-09T09:29:26;10.55;;;9.10;;
53040;SDS011;39326;42.650;23.248;2022-09-09T09:31:52;9.07;;;8.15;;
53040;SDS011;39326;42.650;23.248;2022-09-09T09:34:20;12.73;;;8.75;;
53040;SDS011;39326;42.650;23.248;2022-09-09T09:36:48;9.52;;;8.27;;
53040;SDS011;39326;42.650;23.248;2022-09-09T09:39:22;11.05;;;8.45;;
53040;SDS011;39326;42.650;23.248;2022-09-09T09:41:50;11.20;;;8.75;;
53040;SDS011;39326;42.650;23.248;2022-09-09T09:44:27;8.52;;;7.68;;
53040;SDS011;39326;42.650;23.248;2022-09-09T09:47:05;8.85;;;8.15;;
53040;SDS011;39326;42.650;23.248;2022-09-09T09:49:57;11.70;;;7.75;;
53040;SDS011;39326;42.650;23.248;2022-09-09T09:52:27;11.50;;;7.93;;
53040;SDS011;39326;42.650;23.248;2022-09-09T09:54:57;9.23;;;7.82;;
53040;SDS011;39326;42.650;23.248;2022-09-09T09:57:28;11.90;;;8.15;;
53040;SDS011;39326;42.650;23.248;2022-09-09T10:00:16;9.32;;;7.72;;
53040;SDS011;39326;42.650;23.248;2022-09-09T10:02:44;8.80;;;7.90;;
53040;SDS011;39326;42.650;23.248;2022-09-09T10:05:13;7.95;;;7.22;;
53040;SDS011;39326;42.650;23.248;2022-09-09T10:07:39;10.43;;;7.50;;
53040;SDS011;39326;42.650;23.248;2022-09-09T10:10:04;9.30;;;7.07;;
53040;SDS011;39326;42.650;23.248;2022-09-09T10:12:53;8.57;;;7.72;;
53040;SDS011;39326;42.650;23.248;2022-09-09T10:15:52;8.15;;;7.55;;
53040;SDS011;39326;42.650;23.248;2022-09-09T10:18:35;8.20;;;7.50;;
53040;SDS011;39326;42.650;23.248;2022-09-09T10:21:18;9.00;;;8.10;;
53040;SDS011;39326;42.650;23.248;2022-09-09T10:23:55;9.55;;;8.75;;
53040;SDS011;39326;42.650;23.248;2022-09-09T10:27:02;8.07;;;7.28;;
53040;SDS011;39326;42.650;23.248;2022-09-09T10:41:09;11.35;;;10.25;;
53040;SDS011;39326;42.650;23.248;2022-09-09T10:49:19;9.13;;;8.27;;
53040;SDS011;39326;42.650;23.248;2022-09-09T10:57:10;11.95;;;9.50;;
53040;SDS011;39326;42.650;23.248;2022-09-09T10:59:58;9.23;;;8.23;;
53040;SDS011;39326;42.650;23.248;2022-09-09T11:02:30;11.50;;;8.57;;
53040;SDS011;39326;42.650;23.248;2022-09-09T11:05:08;10.70;;;9.05;;
53040;SDS011;39326;42.650;23.248;2022-09-09T11:07:42;10.38;;;8.10;;
53040;SDS011;39326;42.650;23.248;2022-09-09T11:12:49;10.27;;;9.13;;
53040;SDS011;39326;42.650;23.248;2022-09-09T11:15:20;9.35;;;8.38;;
53040;SDS011;39326;42.650;23.248;2022-09-09T11:17:58;8.85;;;7.65;;
53040;SDS011;39326;42.650;23.248;2022-09-09T11:20:28;10.68;;;9.20;;
53040;SDS011;39326;42.650;23.248;2022-09-09T11:23:02;10.27;;;8.77;;
53040;SDS011;39326;42.650;23.248;2022-09-09T11:25:37;9.07;;;7.88;;
53040;SDS011;39326;42.650;23.248;2022-09-09T11:38:57;12.48;;;9.13;;
53040;SDS011;39326;42.650;23.248;2022-09-09T11:41:42;10.57;;;8.13;;
53040;SDS011;39326;42.650;23.248;2022-09-09T11:44:11;8.90;;;8.02;;
53040;SDS011;39326;42.650;23.248;2022-09-09T11:46:41;10.35;;;8.52;;
53040;SDS011;39326;42.650;23.248;2022-09-09T11:49:25;9.13;;;8.15;;
53040;SDS011;39326;42.650;23.248;2022-09-09T11:55:29;9.73;;;8.05;;
53040;SDS011;39326;42.650;23.248;2022-09-09T11:57:58;11.73;;;8.70;;
53040;SDS011;39326;42.650;23.248;2022-09-09T12:00:33;9.57;;;8.60;;
53040;SDS011;39326;42.650;23.248;2022-09-09T12:03:05;8.25;;;7.65;;
53040;SDS011;39326;42.650;23.248;2022-09-09T12:05:44;8.02;;;7.20;;
53040;SDS011;39326;42.650;23.248;2022-09-09T12:08:11;13.82;;;9.00;;
53040;SDS011;39326;42.650;23.248;2022-09-09T12:10:52;8.85;;;7.40;;
53040;SDS011;39326;42.650;23.248;2022-09-09T12:13:20;10.43;;;8.43;;
53040;SDS011;39326;42.650;23.248;2022-09-09T12:15:52;8.90;;;8.02;;
53040;SDS011;39326;42.650;23.248;2022-09-09T12:18:23;12.05;;;7.53;;
53040;SDS011;39326;42.650;23.248;2022-09-09T12:20:52;10.77;;;8.15;;
53040;SDS011;39326;42.650;23.248;2022-09-09T12:23:35;9.68;;;8.02;;
53040;SDS011;39326;42.650;23.248;2022-09-09T12:26:37;9.80;;;7.68;;
53040;SDS011;39326;42.650;23.248;2022-09-09T12:31:57;9.38;;;8.10;;
53040;SDS011;39326;42.650;23.248;2022-09-09T12:37:02;11.32;;;6.95;;
53040;SDS011;39326;42.650;23.248;2022-09-09T12:39:35;10.52;;;7.07;;
53040;SDS011;39326;42.650;23.248;2022-09-09T12:42:15;8.30;;;5.68;;
53040;SDS011;39326;42.650;23.248;2022-09-09T12:44:50;8.68;;;5.38;;
53040;SDS011;39326;42.650;23.248;2022-09-09T12:47:16;8.55;;;6.45;;
53040;SDS011;39326;42.650;23.248;2022-09-09T12:49:44;9.98;;;5.85;;
53040;SDS011;39326;42.650;23.248;2022-09-09T12:52:14;8.68;;;6.18;;
53040;SDS011;39326;42.650;23.248;2022-09-09T12:54:54;7.93;;;6.07;;
53040;SDS011;39326;42.650;23.248;2022-09-09T12:57:21;7.15;;;6.38;;
53040;SDS011;39326;42.650;23.248;2022-09-09T12:59:52;6.72;;;6.05;;
53040;SDS011;39326;42.650;23.248;2022-09-09T13:02:29;7.25;;;6.00;;
53040;SDS011;39326;42.650;23.248;2022-09-09T13:04:55;9.90;;;6.65;;
53040;SDS011;39326;42.650;23.248;2022-09-09T13:07:32;7.97;;;6.03;;
53040;SDS011;39326;42.650;23.248;2022-09-09T13:09:57;11.77;;;7.50;;
53040;SDS011;39326;42.650;23.248;2022-09-09T13:12:22;8.38;;;7.28;;
53040;SDS011;39326;42.650;23.248;2022-09-09T13:14:49;11.00;;;8.75;;
53040;SDS011;39326;42.650;23.248;2022-09-09T13:17:25;10.05;;;8.52;;
53040;SDS011;39326;42.650;23.248;2022-09-09T13:19:54;9.75;;;8.77;;
53040;SDS011;39326;42.650;23.248;2022-09-09T13:27:37;9.50;;;8.60;;
53040;SDS011;39326;42.650;23.248;2022-09-09T13:30:24;10.10;;;9.10;;
53040;SDS011;39326;42.650;23.248;2022-09-09T13:33:04;13.77;;;9.18;;
53040;SDS011;39326;42.650;23.248;2022-09-09T13:36:02;8.85;;;7.95;;
53040;SDS011;39326;42.650;23.248;2022-09-09T13:38:29;12.57;;;8.57;;
53040;SDS011;39326;42.650;23.248;2022-09-09T13:40:58;9.27;;;8.32;;
53040;SDS011;39326;42.650;23.248;2022-09-09T13:43:34;10.20;;;8.90;;
53040;SDS011;39326;42.650;23.248;2022-09-09T13:46:04;12.98;;;9.15;;
53040;SDS011;39326;42.650;23.248;2022-09-09T13:49:21;9.38;;;8.38;;
53040;SDS011;39326;42.650;23.248;2022-09-09T13:51:43;9.35;;;8.07;;
53040;SDS011;39326;42.650;23.248;2022-09-09T13:54:12;8.88;;;8.00;;
53040;SDS011;39326;42.650;23.248;2022-09-09T13:56:39;9.05;;;8.15;;
53040;SDS011;39326;42.650;23.248;2022-09-09T13:59:09;11.55;;;8.68;;
53040;SDS011;39326;42.650;23.248;2022-09-09T14:01:37;11.43;;;8.13;;
53040;SDS011;39326;42.650;23.248;2022-09-09T14:04:02;8.75;;;7.90;;
53040;SDS011;39326;42.650;23.248;2022-09-09T14:06:28;11.20;;;8.30;;
53040;SDS011;39326;42.650;23.248;2022-09-09T14:08:54;8.57;;;7.68;;
53040;SDS011;39326;42.650;23.248;2022-09-09T14:11:20;9.02;;;8.10;;
53040;SDS011;39326;42.650;23.248;2022-09-09T14:13:46;11.10;;;8.57;;
53040;SDS011;39326;42.650;23.248;2022-09-09T14:16:18;15.25;;;9.00;;
53040;SDS011;39326;42.650;23.248;2022-09-09T14:18:44;10.90;;;8.35;;
53040;SDS011;39326;42.650;23.248;2022-09-09T14:21:10;9.48;;;8.23;;
53040;SDS011;39326;42.650;23.248;2022-09-09T14:23:36;11.25;;;8.77;;
53040;SDS011;39326;42.650;23.248;2022-09-09T14:26:03;10.48;;;8.20;;
53040;SDS011;39326;42.650;23.248;2022-09-09T14:28:31;22.98;;;17.50;;
53040;SDS011;39326;42.650;23.248;2022-09-09T14:31:02;17.95;;;13.90;;
53040;SDS011;39326;42.650;23.248;2022-09-09T14:33:29;13.82;;;8.60;;
53040;SDS011;39326;42.650;23.248;2022-09-09T14:35:55;12.07;;;8.05;;
53040;SDS011;39326;42.650;23.248;2022-09-09T14:38:22;13.32;;;8.90;;
53040;SDS011;39326;42.650;23.248;2022-09-09T14:40:47;11.32;;;8.50;;
53040;SDS011;39326;42.650;23.248;2022-09-09T14:43:13;10.57;;;8.43;;
53040;SDS011;39326;42.650;23.248;2022-09-09T14:45:39;9.07;;;8.27;;
53040;SDS011;39326;42.650;23.248;2022-09-09T14:48:04;12.05;;;8.50;;
53040;SDS011;39326;42.650;23.248;2022-09-09T14:50:30;13.27;;;8.73;;
53040;SDS011;39326;42.650;23.248;2022-09-09T14:52:55;10.43;;;9.13;;
53040;SDS011;39326;42.650;23.248;2022-09-09T14:55:20;9.27;;;8.18;;
53040;SDS011;39326;42.650;23.248;2022-09-09T14:57:46;11.65;;;8.65;;
53040;SDS011;39326;42.650;23.248;2022-09-09T15:00:11;10.52;;;8.27;;
53040;SDS011;39326;42.650;23.248;2022-09-09T15:02:38;13.05;;;9.07;;
53040;SDS011;39326;42.650;23.248;2022-09-09T15:05:04;18.40;;;9.10;;
53040;SDS011;39326;42.650;23.248;2022-09-09T15:07:30;12.68;;;8.63;;
53040;SDS011;39326;42.650;23.248;2022-09-09T15:09:57;11.77;;;8.98;;
53040;SDS011;39326;42.650;23.248;2022-09-09T15:12:23;12.48;;;9.10;;
53040;SDS011;39326;42.650;23.248;2022-09-09T15:14:49;13.25;;;8.60;;
53040;SDS011;39326;42.650;23.248;2022-09-09T15:17:15;10.18;;;8.57;;
53040;SDS011;39326;42.650;23.248;2022-09-09T15:19:41;12.05;;;9.13;;
53040;SDS011;39326;42.650;23.248;2022-09-09T15:22:07;13.35;;;8.82;;
53040;SDS011;39326;42.650;23.248;2022-09-09T15:24:34;11.48;;;8.80;;
53040;SDS011;39326;42.650;23.248;2022-09-09T15:27:00;12.02;;;8.80;;
53040;SDS011;39326;42.650;23.248;2022-09-09T15:29:26;9.93;;;8.88;;
53040;SDS011;39326;42.650;23.248;2022-09-09T15:31:52;11.25;;;8.50;;
53040;SDS011;39326;42.650;23.248;2022-09-09T15:34:19;8.73;;;8.02;;
53040;SDS011;39326;42.650;23.248;2022-09-09T15:36:44;10.13;;;8.30;;
53040;SDS011;39326;42.650;23.248;2022-09-09T15:39:14;9.60;;;7.78;;
53040;SDS011;39326;42.650;23.248;2022-09-09T15:41:42;10.07;;;8.02;;
53040;SDS011;39326;42.650;23.248;2022-09-09T15:44:12;7.57;;;6.70;;
53040;SDS011;39326;42.650;23.248;2022-09-09T15:46:38;9.48;;;7.10;;
53040;SDS011;39326;42.650;23.248;2022-09-09T15:51:39;11.95;;;8.30;;
53040;SDS011;39326;42.650;23.248;2022-09-09T15:54:07;9.95;;;8.45;;
53040;SDS011;39326;42.650;23.248;2022-09-09T15:56:34;9.50;;;8.30;;
53040;SDS011;39326;42.650;23.248;2022-09-09T15:58:59;12.82;;;8.52;;
53040;SDS011;39326;42.650;23.248;2022-09-09T16:01:28;9.07;;;7.95;;
53040;SDS011;39326;42.650;23.248;2022-09-09T16:03:55;10.35;;;7.43;;
53040;SDS011;39326;42.650;23.248;2022-09-09T16:06:22;10.68;;;8.38;;
53040;SDS011;39326;42.650;23.248;2022-09-09T16:08:49;9.50;;;8.27;;
53040;SDS011;39326;42.650;23.248;2022-09-09T16:11:18;13.38;;;8.48;;
53040;SDS011;39326;42.650;23.248;2022-09-09T16:13:46;9.07;;;8.18;;
53040;SDS011;39326;42.650;23.248;2022-09-09T16:16:14;12.43;;;8.52;;
53040;SDS011;39326;42.650;23.248;2022-09-09T16:18:41;10.00;;;8.27;;
53040;SDS011;39326;42.650;23.248;2022-09-09T16:21:17;12.63;;;8.90;;
53040;SDS011;39326;42.650;23.248;2022-09-09T16:23:44;10.27;;;8.48;;
53040;SDS011;39326;42.650;23.248;2022-09-09T16:26:11;13.88;;;8.23;;
53040;SDS011;39326;42.650;23.248;2022-09-09T16:28:38;10.93;;;8.07;;
53040;SDS011;39326;42.650;23.248;2022-09-09T16:31:07;10.88;;;8.20;;
53040;SDS011;39326;42.650;23.248;2022-09-09T16:33:35;9.10;;;7.68;;
53040;SDS011;39326;42.650;23.248;2022-09-09T16:36:11;11.55;;;8.27;;
53040;SDS011;39326;42.650;23.248;2022-09-09T16:38:39;11.00;;;8.57;;
53040;SDS011;39326;42.650;23.248;2022-09-09T16:41:05;10.93;;;7.85;;
53040;SDS011;39326;42.650;23.248;2022-09-09T16:43:32;8.35;;;7.55;;
53040;SDS011;39326;42.650;23.248;2022-09-09T16:46:00;12.63;;;8.10;;
53040;SDS011;39326;42.650;23.248;2022-09-09T16:48:31;10.27;;;7.47;;
53040;SDS011;39326;42.650;23.248;2022-09-09T16:51:01;9.63;;;7.55;;
53040;SDS011;39326;42.650;23.248;2022-09-09T16:53:36;15.10;;;7.57;;
53040;SDS011;39326;42.650;23.248;2022-09-09T16:56:05;8.25;;;7.45;;
53040;SDS011;39326;42.650;23.248;2022-09-09T16:58:31;11.25;;;8.15;;
53040;SDS011;39326;42.650;23.248;2022-09-09T17:00:57;10.07;;;7.88;;
53040;SDS011;39326;42.650;23.248;2022-09-09T17:03:23;10.38;;;7.85;;
53040;SDS011;39326;42.650;23.248;2022-09-09T17:05:49;9.27;;;7.82;;
53040;SDS011;39326;42.650;23.248;2022-09-09T17:08:14;12.68;;;8.38;;
53040;SDS011;39326;42.650;23.248;2022-09-09T17:10:40;11.48;;;7.40;;
53040;SDS011;39326;42.650;23.248;2022-09-09T17:13:07;11.30;;;8.18;;
53040;SDS011;39326;42.650;23.248;2022-09-09T17:15:32;8.80;;;7.57;;
53040;SDS011;39326;42.650;23.248;2022-09-09T17:17:59;12.00;;;7.93;;
53040;SDS011;39326;42.650;23.248;2022-09-09T17:20:25;11.57;;;7.93;;
53040;SDS011;39326;42.650;23.248;2022-09-09T17:22:50;10.32;;;8.32;;
53040;SDS011;39326;42.650;23.248;2022-09-09T17:25:16;9.98;;;8.85;;
53040;SDS011;39326;42.650;23.248;2022-09-09T17:27:42;9.55;;;8.65;;
53040;SDS011;39326;42.650;23.248;2022-09-09T17:30:07;10.15;;;8.63;;
53040;SDS011;39326;42.650;23.248;2022-09-09T17:32:34;9.95;;;8.77;;
53040;SDS011;39326;42.650;23.248;2022-09-09T17:35:00;13.40;;;8.43;;
53040;SDS011;39326;42.650;23.248;2022-09-09T17:37:26;10.65;;;8.77;;
53040;SDS011;39326;42.650;23.248;2022-09-09T17:39:52;11.48;;;8.73;;
53040;SDS011;39326;42.650;23.248;2022-09-09T17:42:17;10.05;;;9.05;;
53040;SDS011;39326;42.650;23.248;2022-09-09T17:44:43;9.07;;;8.05;;
53040;SDS011;39326;42.650;23.248;2022-09-09T17:47:08;11.15;;;9.00;;
53040;SDS011;39326;42.650;23.248;2022-09-09T17:49:34;9.65;;;8.73;;
53040;SDS011;39326;42.650;23.248;2022-09-09T17:51:59;13.20;;;8.85;;